EVRA

Riga International Airport

Riga, Latvia
METAR EVRA 181250Z 13006KT 9000 OVC006 M03/M03 Q1029 R18/490295 NOSIG
Observed Flight Rules
Dec-18 @ 12:50 UTC (18 minutes ago) Instrument Flight Rules
Wind Visibility Clouds
130° at 6 knots 8,996 meters
  • Overcast at 600' AGL
Temperatures Readings
Current -3°C / 27°F
Dewpoint -3°C / 27°F
Humidity 100%
Altimeter 30.38" Hg
Pressure 1029 hPa
Elevation 10
METAR EVRA 181250Z 13006KT 9000 OVC006 M03/M03 Q1029 R18/490295 NOSIG
Observed Flight Rules
Dec-18 @ 12:50 UTC
(18 minutes ago)
IFR
Wind Visibility
130° at 6 knots 8,996 meters
Clouds
  • Overcast at 600' AGL
Temperature Dewpoint
-3°C / 27°F -3°C / 27°F
Humidity Altimeter Pressure
100% 30.38" Hg 1029 hPa